Flight Track Log - Related Links

Times and Time Zones

All times are in EDT time to prevent confusion due to time zone crossing. See the CJC5022 flight status page for this flight to view local times or setup timezone preferences in your user account.


Time Position Orientation Groundspeed Altitude Reporting Facility
EDT Latitude Longitude Course Direction KTS MPH feet Rate Location/Type
Sun 06:52:55 PM 29.9828 -95.3586 20° North 137 158 700  Level Houston Center
Sun 06:54:21 PM 30.0356 -95.3364 28° Northeast 159 183 2,600 939 Climbing Houston Center
Sun 06:55:22 PM 30.0803 -95.3092 17° North 178 205 3,000 197 Climbing Houston Center
Sun 06:56:23 PM 30.1433 -95.2875 18° North 228 262 3,000 93 Level Houston Center
Sun 06:57:31 PM 30.2067 -95.2633 26° Northeast 230 265 3,200 873 Climbing Houston Center
Sun 06:59:01 PM 30.2744 -95.2247 30° Northeast 211 243 5,300 1,360 Climbing Houston Center
Sun 07:00:01 PM 30.3125 -95.1997 28° Northeast 181 208 6,600 1,250 Climbing Houston Center
Sun 07:01:01 PM 30.3531 -95.1747 27° Northeast 162 186 7,800 1,150 Climbing Houston Center
Sun 07:02:01 PM 30.3953 -95.1497 35° Northeast 162 186 8,900 1,050 Climbing Houston Center
Sun 07:03:01 PM 30.4358 -95.1172 40° Northeast 168 193 9,900 1,000 Climbing Houston Center
Sun 07:04:01 PM 30.4744 -95.0800 42° Northeast 168 193 10,900 1,000 Climbing Houston Center
Sun 07:05:01 PM 30.5128 -95.0403 36° Northeast 180 207 11,900 950 Climbing Houston Center
Sun 07:06:01 PM 30.5511 -95.0078 35° Northeast 180 207 12,800 800 Climbing Houston Center
Sun 07:07:01 PM 30.5939 -94.9731 33° Northeast 180 207 13,500 700 Climbing Houston Center
Sun 07:08:01 PM 30.6364 -94.9408 36° Northeast 180 207 14,200 700 Climbing Houston Center
Sun 07:09:01 PM 30.6811 -94.9036 36° Northeast 180 207 14,900 400 Climbing Houston Center
Sun 07:10:01 PM 30.7281 -94.8639 38° Northeast 185 213 15,000 50 Climbing Houston Center
Sun 07:11:01 PM 30.7811 -94.8150 35° Northeast 211 243 15,000  Level Houston Center
Sun 07:12:01 PM 30.8386 -94.7683 34° Northeast 229 264 15,000  Level Houston Center
Sun 07:13:28 PM 30.9233 -94.7014 30° Northeast 254 292 15,000  Level Fort Worth Center
Sun 07:14:28 PM 30.9831 -94.6608 30° Northeast 254 292 15,000  Level Fort Worth Center
Sun 07:15:28 PM 31.0406 -94.6228 36° Northeast 248 285 15,000  Level Fort Worth Center
Sun 07:16:28 PM 31.1019 -94.5700 33° Northeast 248 285 15,000  Level Fort Worth Center
Sun 07:17:28 PM 31.1553 -94.5297 34° Northeast 238 274 15,000  Level Fort Worth Center
Sun 07:18:28 PM 31.2108 -94.4867 34° Northeast 238 274 15,000  Level Fort Worth Center
Sun 07:19:28 PM 31.2661 -94.4436 33° Northeast 232 267 15,000  Level Fort Worth Center
Sun 07:20:28 PM 31.3194 -94.4031 37° Northeast 232 267 15,000  Level Fort Worth Center
Sun 07:21:28 PM 31.3706 -94.3575 40° Northeast 232 267 15,000  Level Fort Worth Center
Sun 07:22:28 PM 31.4194 -94.3097 35° Northeast 232 267 15,000  Level Fort Worth Center
Sun 07:23:28 PM 31.4728 -94.2664 33° Northeast 232 267 15,000  Level Fort Worth Center
Sun 07:24:28 PM 31.5258 -94.2256 37° Northeast 232 267 15,000  Level Fort Worth Center
Sun 07:25:28 PM 31.5750 -94.1825 35° Northeast 232 267 15,000  Level Fort Worth Center
Sun 07:26:28 PM 31.6281 -94.1392 36° Northeast 232 267 15,000  Level Fort Worth Center
Sun 07:27:28 PM 31.6792 -94.0958 34° Northeast 232 267 15,000  Level Fort Worth Center
Sun 07:28:28 PM 31.7283 -94.0575 36° Northeast 232 267 15,000 -100 Level Fort Worth Center
Sun 07:29:28 PM 31.7814 -94.0117 32° Northeast 226 260 14,800 -800 Descending Fort Worth Center
Sun 07:30:28 PM 31.8242 -93.9806 29° Northeast 226 260 13,400 -1,745 Descending Fort Worth Center
Sun 07:31:18 PM 31.8836 -93.9417 26° Northeast 238 274 11,600 -1,892 Descending Fort Worth Center
Sun 07:32:19 PM 31.9433 -93.9078 29° Northeast 232 267 9,900 -1,537 Descending Fort Worth Center
Sun 07:33:19 PM 31.9986 -93.8711 25° Northeast 234 269 8,500 -1,289 Descending Fort Worth Center
Sun 07:34:20 PM 32.0603 -93.8369 28° Northeast 237 273 7,300 -1,180 Descending Fort Worth Center
Sun 07:35:21 PM 32.1178 -93.8003 26° Northeast 227 261 6,100 -1,043 Descending Fort Worth Center
Sun 07:36:15 PM 32.1669 -93.7714 10° North 225 259 5,300 -991 Descending Fort Worth Center
Sun 07:37:16 PM 32.2231 -93.7594 North 208 239 4,200 -1,041 Descending Fort Worth Center
Sun 07:38:16 PM 32.2811 -93.7497 342° North 194 223 3,200 -694 Descending Fort Worth Center
Sun 07:39:17 PM 32.3214 -93.7653 320° Northwest 169 194 2,800 -639 Descending Fort Worth Center
Sun 07:40:18 PM 32.3600 -93.8031 360° North 177 204 1,900 -839 Descending Fort Worth Center
Sun 07:41:40 PM 32.4164 -93.8033 355° North 139 160 800 -709 Descending Fort Worth Center
Sun 07:42:25 PM 32.4331 -93.8050 355° North 171 197 400 -533 Descending Fort Worth Center

Login

Don't have an account? Register now (free) for customized features, flight alerts, and more!